sensor_id;sensor_type;location;lat;lon;timestamp;temperature;humidity
47114;DHT22;32867;51.556;6.832;2023-03-31T00:00:37;12.50;99.90
47114;DHT22;32867;51.556;6.832;2023-03-31T00:05:38;12.50;99.90
47114;DHT22;32867;51.556;6.832;2023-03-31T00:10:44;12.50;99.90
47114;DHT22;32867;51.556;6.832;2023-03-31T00:15:45;12.60;99.90
47114;DHT22;32867;51.556;6.832;2023-03-31T00:20:46;12.60;99.90
47114;DHT22;32867;51.556;6.832;2023-03-31T00:25:47;12.60;99.90
47114;DHT22;32867;51.556;6.832;2023-03-31T00:30:48;12.60;99.90
47114;DHT22;32867;51.556;6.832;2023-03-31T00:35:50;12.60;99.90
47114;DHT22;32867;51.556;6.832;2023-03-31T00:40:51;12.60;99.90
47114;DHT22;32867;51.556;6.832;2023-03-31T00:45:52;12.50;99.90
47114;DHT22;32867;51.556;6.832;2023-03-31T00:50:56;12.40;99.90
47114;DHT22;32867;51.556;6.832;2023-03-31T00:56:08;12.40;99.90
47114;DHT22;32867;51.556;6.832;2023-03-31T01:01:17;12.50;99.90
47114;DHT22;32867;51.556;6.832;2023-03-31T01:06:18;12.50;99.90
47114;DHT22;32867;51.556;6.832;2023-03-31T01:11:21;12.60;99.90
47114;DHT22;32867;51.556;6.832;2023-03-31T01:16:23;12.40;99.90
47114;DHT22;32867;51.556;6.832;2023-03-31T01:43:30;12.10;99.90
47114;DHT22;32867;51.556;6.832;2023-03-31T01:53:56;12.00;99.90
47114;DHT22;32867;51.556;6.832;2023-03-31T02:04:20;12.20;99.90
47114;DHT22;32867;51.556;6.832;2023-03-31T02:09:25;12.20;99.90
47114;DHT22;32867;51.556;6.832;2023-03-31T02:14:29;12.30;99.90
47114;DHT22;32867;51.556;6.832;2023-03-31T02:19:34;12.30;99.90
47114;DHT22;32867;51.556;6.832;2023-03-31T02:24:37;12.40;99.90
47114;DHT22;32867;51.556;6.832;2023-03-31T02:29:39;12.40;99.90
47114;DHT22;32867;51.556;6.832;2023-03-31T02:34:42;12.20;99.90
47114;DHT22;32867;51.556;6.832;2023-03-31T02:39:46;12.30;99.90
47114;DHT22;32867;51.556;6.832;2023-03-31T02:44:48;12.20;99.90
47114;DHT22;32867;51.556;6.832;2023-03-31T02:49:55;12.00;99.90
47114;DHT22;32867;51.556;6.832;2023-03-31T03:05:47;12.00;99.90
47114;DHT22;32867;51.556;6.832;2023-03-31T03:16:44;11.90;99.90
47114;DHT22;32867;51.556;6.832;2023-03-31T03:21:47;11.90;99.90
47114;DHT22;32867;51.556;6.832;2023-03-31T03:26:48;11.90;99.90
47114;DHT22;32867;51.556;6.832;2023-03-31T03:31:49;12.00;99.90
47114;DHT22;32867;51.556;6.832;2023-03-31T03:36:50;12.00;99.90
47114;DHT22;32867;51.556;6.832;2023-03-31T03:41:51;12.10;99.90
47114;DHT22;32867;51.556;6.832;2023-03-31T03:46:51;12.00;99.90
47114;DHT22;32867;51.556;6.832;2023-03-31T03:51:52;12.00;99.90
47114;DHT22;32867;51.556;6.832;2023-03-31T03:56:53;12.10;99.90
47114;DHT22;32867;51.556;6.832;2023-03-31T04:01:53;11.90;99.90
47114;DHT22;32867;51.556;6.832;2023-03-31T04:06:54;12.00;99.90
47114;DHT22;32867;51.556;6.832;2023-03-31T04:11:55;12.00;99.90
47114;DHT22;32867;51.556;6.832;2023-03-31T04:16:56;12.00;99.90
47114;DHT22;32867;51.556;6.832;2023-03-31T04:21:57;12.00;99.90
47114;DHT22;32867;51.556;6.832;2023-03-31T04:27:02;12.00;99.90
47114;DHT22;32867;51.556;6.832;2023-03-31T04:32:04;12.00;99.90
47114;DHT22;32867;51.556;6.832;2023-03-31T04:37:05;11.80;99.90
47114;DHT22;32867;51.556;6.832;2023-03-31T04:42:05;11.80;99.90
47114;DHT22;32867;51.556;6.832;2023-03-31T04:47:06;11.90;99.90
47114;DHT22;32867;51.556;6.832;2023-03-31T04:52:07;11.70;99.90
47114;DHT22;32867;51.556;6.832;2023-03-31T04:57:07;11.70;99.90
47114;DHT22;32867;51.556;6.832;2023-03-31T05:02:08;11.60;99.90
47114;DHT22;32867;51.556;6.832;2023-03-31T05:07:09;11.60;99.90
47114;DHT22;32867;51.556;6.832;2023-03-31T05:12:10;11.50;99.90
47114;DHT22;32867;51.556;6.832;2023-03-31T05:17:10;11.60;99.90
47114;DHT22;32867;51.556;6.832;2023-03-31T05:22:11;11.50;99.90
47114;DHT22;32867;51.556;6.832;2023-03-31T05:27:12;11.50;99.90
47114;DHT22;32867;51.556;6.832;2023-03-31T05:32:12;11.40;99.90
47114;DHT22;32867;51.556;6.832;2023-03-31T05:37:13;11.40;99.90
47114;DHT22;32867;51.556;6.832;2023-03-31T05:42:14;11.40;99.90
47114;DHT22;32867;51.556;6.832;2023-03-31T05:47:15;11.60;99.90
47114;DHT22;32867;51.556;6.832;2023-03-31T05:52:15;11.60;99.90
47114;DHT22;32867;51.556;6.832;2023-03-31T05:57:16;11.50;99.90
47114;DHT22;32867;51.556;6.832;2023-03-31T06:02:17;11.50;99.90
47114;DHT22;32867;51.556;6.832;2023-03-31T06:07:17;11.60;99.90
47114;DHT22;32867;51.556;6.832;2023-03-31T06:12:18;11.50;99.90
47114;DHT22;32867;51.556;6.832;2023-03-31T06:17:19;11.40;99.90
47114;DHT22;32867;51.556;6.832;2023-03-31T06:22:20;11.50;99.90
47114;DHT22;32867;51.556;6.832;2023-03-31T06:27:21;11.60;99.90
47114;DHT22;32867;51.556;6.832;2023-03-31T06:32:22;11.70;99.90
47114;DHT22;32867;51.556;6.832;2023-03-31T06:37:22;11.50;99.90
47114;DHT22;32867;51.556;6.832;2023-03-31T06:42:23;11.60;99.90
47114;DHT22;32867;51.556;6.832;2023-03-31T06:47:24;11.60;99.90
47114;DHT22;32867;51.556;6.832;2023-03-31T06:52:25;11.50;99.90
47114;DHT22;32867;51.556;6.832;2023-03-31T06:57:26;11.40;99.90
47114;DHT22;32867;51.556;6.832;2023-03-31T07:02:27;11.50;99.90
47114;DHT22;32867;51.556;6.832;2023-03-31T07:07:30;11.60;99.90
47114;DHT22;32867;51.556;6.832;2023-03-31T07:12:32;11.40;99.90
47114;DHT22;32867;51.556;6.832;2023-03-31T07:17:33;11.40;99.90
47114;DHT22;32867;51.556;6.832;2023-03-31T07:22:33;11.20;99.90
47114;DHT22;32867;51.556;6.832;2023-03-31T07:27:35;11.10;99.90
47114;DHT22;32867;51.556;6.832;2023-03-31T07:32:35;11.30;99.90
47114;DHT22;32867;51.556;6.832;2023-03-31T07:37:43;11.40;99.90
47114;DHT22;32867;51.556;6.832;2023-03-31T07:42:44;11.30;99.90
47114;DHT22;32867;51.556;6.832;2023-03-31T07:47:47;11.40;99.90
47114;DHT22;32867;51.556;6.832;2023-03-31T07:52:48;11.40;99.90
47114;DHT22;32867;51.556;6.832;2023-03-31T07:57:49;11.20;99.90
47114;DHT22;32867;51.556;6.832;2023-03-31T08:02:50;11.20;99.90
47114;DHT22;32867;51.556;6.832;2023-03-31T08:07:51;11.00;99.90
47114;DHT22;32867;51.556;6.832;2023-03-31T08:12:52;11.20;99.90
47114;DHT22;32867;51.556;6.832;2023-03-31T08:17:52;11.20;99.90
47114;DHT22;32867;51.556;6.832;2023-03-31T08:22:53;11.10;99.90
47114;DHT22;32867;51.556;6.832;2023-03-31T08:27:54;11.30;99.90
47114;DHT22;32867;51.556;6.832;2023-03-31T08:32:55;11.20;99.90
47114;DHT22;32867;51.556;6.832;2023-03-31T08:37:56;11.40;99.90
47114;DHT22;32867;51.556;6.832;2023-03-31T08:43:03;11.50;99.90
47114;DHT22;32867;51.556;6.832;2023-03-31T08:48:14;11.50;99.90
47114;DHT22;32867;51.556;6.832;2023-03-31T08:53:30;11.60;99.90
47114;DHT22;32867;51.556;6.832;2023-03-31T08:58:43;11.60;99.90
47114;DHT22;32867;51.556;6.832;2023-03-31T09:04:22;12.00;99.90
47114;DHT22;32867;51.556;6.832;2023-03-31T09:15:13;12.10;99.90
47114;DHT22;32867;51.556;6.832;2023-03-31T09:25:26;12.20;99.90
47114;DHT22;32867;51.556;6.832;2023-03-31T09:30:31;12.10;99.90
47114;DHT22;32867;51.556;6.832;2023-03-31T09:35:33;12.20;99.90
47114;DHT22;32867;51.556;6.832;2023-03-31T09:40:33;12.20;99.90
47114;DHT22;32867;51.556;6.832;2023-03-31T09:45:34;12.40;99.90
47114;DHT22;32867;51.556;6.832;2023-03-31T09:50:41;12.50;99.90
47114;DHT22;32867;51.556;6.832;2023-03-31T09:55:47;12.70;99.90
47114;DHT22;32867;51.556;6.832;2023-03-31T10:00:59;13.10;99.90
47114;DHT22;32867;51.556;6.832;2023-03-31T10:06:07;13.50;99.90
47114;DHT22;32867;51.556;6.832;2023-03-31T10:11:10;13.80;99.90
47114;DHT22;32867;51.556;6.832;2023-03-31T10:16:14;13.70;99.90
47114;DHT22;32867;51.556;6.832;2023-03-31T10:21:35;13.50;99.90
47114;DHT22;32867;51.556;6.832;2023-03-31T10:26:37;13.20;99.90
47114;DHT22;32867;51.556;6.832;2023-03-31T10:31:39;13.20;99.90
47114;DHT22;32867;51.556;6.832;2023-03-31T10:36:45;13.60;99.90
47114;DHT22;32867;51.556;6.832;2023-03-31T10:41:50;14.40;99.90
47114;DHT22;32867;51.556;6.832;2023-03-31T10:46:52;14.60;99.90
47114;DHT22;32867;51.556;6.832;2023-03-31T10:51:57;14.60;99.90
47114;DHT22;32867;51.556;6.832;2023-03-31T10:57:00;14.70;99.90
47114;DHT22;32867;51.556;6.832;2023-03-31T11:09:02;14.60;99.90
47114;DHT22;32867;51.556;6.832;2023-03-31T11:19:15;13.20;99.90
47114;DHT22;32867;51.556;6.832;2023-03-31T11:30:54;13.50;99.90
47114;DHT22;32867;51.556;6.832;2023-03-31T11:41:17;13.90;99.90
47114;DHT22;32867;51.556;6.832;2023-03-31T11:46:29;13.90;99.90
47114;DHT22;32867;51.556;6.832;2023-03-31T11:51:43;14.10;99.90
47114;DHT22;32867;51.556;6.832;2023-03-31T11:56:46;13.90;99.90
47114;DHT22;32867;51.556;6.832;2023-03-31T12:07:07;13.70;99.90
47114;DHT22;32867;51.556;6.832;2023-03-31T12:12:15;13.80;99.90
47114;DHT22;32867;51.556;6.832;2023-03-31T12:17:22;13.90;99.90
47114;DHT22;32867;51.556;6.832;2023-03-31T12:22:38;14.00;99.90
47114;DHT22;32867;51.556;6.832;2023-03-31T12:27:42;13.80;99.90
47114;DHT22;32867;51.556;6.832;2023-03-31T12:32:52;13.70;99.90
47114;DHT22;32867;51.556;6.832;2023-03-31T12:43:17;14.10;99.90
47114;DHT22;32867;51.556;6.832;2023-03-31T12:59:17;14.40;99.90
47114;DHT22;32867;51.556;6.832;2023-03-31T13:04:26;14.30;99.90
47114;DHT22;32867;51.556;6.832;2023-03-31T13:14:36;14.50;99.90
47114;DHT22;32867;51.556;6.832;2023-03-31T13:19:40;14.80;99.90
47114;DHT22;32867;51.556;6.832;2023-03-31T13:24:41;14.80;99.90
47114;DHT22;32867;51.556;6.832;2023-03-31T13:29:42;14.90;99.90
47114;DHT22;32867;51.556;6.832;2023-03-31T13:35:01;14.70;99.90
47114;DHT22;32867;51.556;6.832;2023-03-31T14:06:38;15.50;99.90
47114;DHT22;32867;51.556;6.832;2023-03-31T14:11:40;15.70;97.70
47114;DHT22;32867;51.556;6.832;2023-03-31T14:16:54;15.70;97.00
47114;DHT22;32867;51.556;6.832;2023-03-31T14:37:33;15.10;99.90
47114;DHT22;32867;51.556;6.832;2023-03-31T14:42:40;14.70;99.90
47114;DHT22;32867;51.556;6.832;2023-03-31T14:47:50;14.20;99.90
47114;DHT22;32867;51.556;6.832;2023-03-31T14:52:52;13.80;99.90
47114;DHT22;32867;51.556;6.832;2023-03-31T14:57:53;13.50;99.90
47114;DHT22;32867;51.556;6.832;2023-03-31T15:02:56;13.50;99.90
47114;DHT22;32867;51.556;6.832;2023-03-31T15:08:20;13.80;99.90
47114;DHT22;32867;51.556;6.832;2023-03-31T15:18:25;13.80;99.90
47114;DHT22;32867;51.556;6.832;2023-03-31T15:23:27;13.80;99.90
47114;DHT22;32867;51.556;6.832;2023-03-31T15:28:37;14.00;99.90
47114;DHT22;32867;51.556;6.832;2023-03-31T15:33:39;14.30;99.90
47114;DHT22;32867;51.556;6.832;2023-03-31T15:38:43;13.90;99.90
47114;DHT22;32867;51.556;6.832;2023-03-31T15:43:49;13.70;99.90
47114;DHT22;32867;51.556;6.832;2023-03-31T15:48:52;13.70;99.90
47114;DHT22;32867;51.556;6.832;2023-03-31T15:53:53;13.50;99.90
47114;DHT22;32867;51.556;6.832;2023-03-31T16:04:01;13.50;99.90
47114;DHT22;32867;51.556;6.832;2023-03-31T16:09:07;13.50;99.90
47114;DHT22;32867;51.556;6.832;2023-03-31T16:14:32;13.50;99.90
47114;DHT22;32867;51.556;6.832;2023-03-31T16:19:54;13.30;99.90
47114;DHT22;32867;51.556;6.832;2023-03-31T16:24:56;13.30;99.90
47114;DHT22;32867;51.556;6.832;2023-03-31T16:30:07;13.40;99.90
47114;DHT22;32867;51.556;6.832;2023-03-31T16:35:08;13.30;99.90
47114;DHT22;32867;51.556;6.832;2023-03-31T16:40:09;13.10;99.90
47114;DHT22;32867;51.556;6.832;2023-03-31T16:45:10;13.00;99.90
47114;DHT22;32867;51.556;6.832;2023-03-31T16:50:11;13.10;99.90
47114;DHT22;32867;51.556;6.832;2023-03-31T16:55:14;12.80;99.90
47114;DHT22;32867;51.556;6.832;2023-03-31T17:00:15;12.80;99.90
47114;DHT22;32867;51.556;6.832;2023-03-31T17:05:16;12.60;99.90
47114;DHT22;32867;51.556;6.832;2023-03-31T17:10:17;12.60;99.90
47114;DHT22;32867;51.556;6.832;2023-03-31T17:15:17;12.50;99.90
47114;DHT22;32867;51.556;6.832;2023-03-31T17:20:18;12.50;99.90
47114;DHT22;32867;51.556;6.832;2023-03-31T17:25:19;12.30;99.90
47114;DHT22;32867;51.556;6.832;2023-03-31T17:30:21;12.30;99.90
47114;DHT22;32867;51.556;6.832;2023-03-31T17:35:22;12.10;99.90
47114;DHT22;32867;51.556;6.832;2023-03-31T17:40:23;12.10;99.90
47114;DHT22;32867;51.556;6.832;2023-03-31T17:45:25;12.10;99.90
47114;DHT22;32867;51.556;6.832;2023-03-31T17:50:26;12.00;99.90
47114;DHT22;32867;51.556;6.832;2023-03-31T17:55:27;12.10;99.90
47114;DHT22;32867;51.556;6.832;2023-03-31T18:00:28;11.90;99.90
47114;DHT22;32867;51.556;6.832;2023-03-31T18:05:28;11.80;99.90
47114;DHT22;32867;51.556;6.832;2023-03-31T18:10:30;11.80;99.90
47114;DHT22;32867;51.556;6.832;2023-03-31T18:15:31;11.90;99.90
47114;DHT22;32867;51.556;6.832;2023-03-31T18:20:31;11.90;99.90
47114;DHT22;32867;51.556;6.832;2023-03-31T18:25:32;11.80;99.90
47114;DHT22;32867;51.556;6.832;2023-03-31T18:30:33;12.00;99.90
47114;DHT22;32867;51.556;6.832;2023-03-31T18:35:34;11.90;99.90
47114;DHT22;32867;51.556;6.832;2023-03-31T18:40:34;12.00;99.90
47114;DHT22;32867;51.556;6.832;2023-03-31T18:45:35;11.80;99.90
47114;DHT22;32867;51.556;6.832;2023-03-31T18:50:37;11.90;99.90
47114;DHT22;32867;51.556;6.832;2023-03-31T18:55:38;11.90;99.90
47114;DHT22;32867;51.556;6.832;2023-03-31T19:00:39;12.00;99.90
47114;DHT22;32867;51.556;6.832;2023-03-31T19:05:40;11.90;99.90
47114;DHT22;32867;51.556;6.832;2023-03-31T19:10:41;12.00;99.90
47114;DHT22;32867;51.556;6.832;2023-03-31T19:15:43;11.90;99.90
47114;DHT22;32867;51.556;6.832;2023-03-31T19:20:45;12.00;99.90
47114;DHT22;32867;51.556;6.832;2023-03-31T19:25:50;12.10;99.90
47114;DHT22;32867;51.556;6.832;2023-03-31T19:30:52;12.20;99.90
47114;DHT22;32867;51.556;6.832;2023-03-31T19:35:53;12.20;99.90
47114;DHT22;32867;51.556;6.832;2023-03-31T19:40:54;12.10;99.90
47114;DHT22;32867;51.556;6.832;2023-03-31T19:45:54;12.30;99.90
47114;DHT22;32867;51.556;6.832;2023-03-31T19:50:58;12.00;99.90
47114;DHT22;32867;51.556;6.832;2023-03-31T19:56:10;11.90;99.90
47114;DHT22;32867;51.556;6.832;2023-03-31T20:01:20;11.70;99.90
47114;DHT22;32867;51.556;6.832;2023-03-31T20:06:25;11.70;99.90
47114;DHT22;32867;51.556;6.832;2023-03-31T20:11:27;11.60;99.90
47114;DHT22;32867;51.556;6.832;2023-03-31T20:16:29;11.50;99.90
47114;DHT22;32867;51.556;6.832;2023-03-31T20:21:32;11.30;99.90
47114;DHT22;32867;51.556;6.832;2023-03-31T20:26:33;11.40;99.90
47114;DHT22;32867;51.556;6.832;2023-03-31T20:31:35;11.50;99.90
47114;DHT22;32867;51.556;6.832;2023-03-31T20:36:37;11.40;99.90
47114;DHT22;32867;51.556;6.832;2023-03-31T20:41:38;11.50;99.90
47114;DHT22;32867;51.556;6.832;2023-03-31T20:46:40;11.50;99.90
47114;DHT22;32867;51.556;6.832;2023-03-31T20:51:41;11.40;99.90
47114;DHT22;32867;51.556;6.832;2023-03-31T20:56:42;11.10;99.90
47114;DHT22;32867;51.556;6.832;2023-03-31T21:01:43;11.20;99.90
47114;DHT22;32867;51.556;6.832;2023-03-31T21:06:46;11.30;99.90
47114;DHT22;32867;51.556;6.832;2023-03-31T21:11:47;11.40;99.90
47114;DHT22;32867;51.556;6.832;2023-03-31T21:16:47;11.30;99.90
47114;DHT22;32867;51.556;6.832;2023-03-31T21:21:48;11.20;99.90
47114;DHT22;32867;51.556;6.832;2023-03-31T21:26:49;11.20;99.90
47114;DHT22;32867;51.556;6.832;2023-03-31T21:31:49;11.00;99.90
47114;DHT22;32867;51.556;6.832;2023-03-31T21:36:50;11.20;99.90
47114;DHT22;32867;51.556;6.832;2023-03-31T21:41:51;11.20;99.90
47114;DHT22;32867;51.556;6.832;2023-03-31T21:46:51;11.30;99.90
47114;DHT22;32867;51.556;6.832;2023-03-31T21:51:52;11.20;99.90
47114;DHT22;32867;51.556;6.832;2023-03-31T21:56:54;11.30;99.90
47114;DHT22;32867;51.556;6.832;2023-03-31T22:01:55;11.50;99.90
47114;DHT22;32867;51.556;6.832;2023-03-31T22:06:57;11.40;99.90
47114;DHT22;32867;51.556;6.832;2023-03-31T22:11:57;11.30;99.90
47114;DHT22;32867;51.556;6.832;2023-03-31T22:16:58;11.10;99.90
47114;DHT22;32867;51.556;6.832;2023-03-31T22:21:58;11.20;99.90
47114;DHT22;32867;51.556;6.832;2023-03-31T22:27:00;11.10;99.90
47114;DHT22;32867;51.556;6.832;2023-03-31T22:32:01;11.20;99.90
47114;DHT22;32867;51.556;6.832;2023-03-31T22:37:01;11.20;99.90
47114;DHT22;32867;51.556;6.832;2023-03-31T22:42:02;11.20;99.90
47114;DHT22;32867;51.556;6.832;2023-03-31T22:47:03;11.20;99.90
47114;DHT22;32867;51.556;6.832;2023-03-31T22:52:04;11.10;99.90
47114;DHT22;32867;51.556;6.832;2023-03-31T22:57:05;11.00;99.90
47114;DHT22;32867;51.556;6.832;2023-03-31T23:02:05;11.00;99.90
47114;DHT22;32867;51.556;6.832;2023-03-31T23:07:06;10.90;99.90
47114;DHT22;32867;51.556;6.832;2023-03-31T23:12:07;10.90;99.90
47114;DHT22;32867;51.556;6.832;2023-03-31T23:17:07;10.90;99.90
47114;DHT22;32867;51.556;6.832;2023-03-31T23:22:08;11.00;99.90
47114;DHT22;32867;51.556;6.832;2023-03-31T23:27:09;11.00;99.90
47114;DHT22;32867;51.556;6.832;2023-03-31T23:32:10;11.10;99.90
47114;DHT22;32867;51.556;6.832;2023-03-31T23:37:12;11.00;99.90
47114;DHT22;32867;51.556;6.832;2023-03-31T23:42:13;10.90;99.90
47114;DHT22;32867;51.556;6.832;2023-03-31T23:47:18;10.80;99.90
47114;DHT22;32867;51.556;6.832;2023-03-31T23:52:19;10.90;99.90
47114;DHT22;32867;51.556;6.832;2023-03-31T23:57:20;10.90;99.90
